createdAt,value
2018-12-19T00:01:57.971Z,83.53
2018-12-19T00:04:27.651Z,75.77
2018-12-19T00:06:57.164Z,68.77
2018-12-19T00:09:26.639Z,70.83
2018-12-19T00:11:55.990Z,75.50
2018-12-19T00:14:25.191Z,83.70
2018-12-19T00:16:54.723Z,80.50
2018-12-19T00:19:24.335Z,96.80
2018-12-19T00:21:53.771Z,78.70
2018-12-19T00:24:23.175Z,93.07
2018-12-19T00:26:52.565Z,90.77
2018-12-19T00:29:22.035Z,98.70
2018-12-19T00:31:51.576Z,108.07
2018-12-19T00:34:21.055Z,107.10
2018-12-19T00:36:50.726Z,88.77
2018-12-19T00:39:20.591Z,96.73
2018-12-19T00:41:50.019Z,92.77
2018-12-19T00:44:19.519Z,88.83
2018-12-19T00:46:48.941Z,99.30
2018-12-19T00:49:18.396Z,107.40
2018-12-19T00:51:48.100Z,108.67
2018-12-19T00:54:18.079Z,85.47
2018-12-19T00:56:47.519Z,80.00
2018-12-19T00:59:17.025Z,90.77
2018-12-19T01:01:46.543Z,72.57
2018-12-19T01:04:16.236Z,83.03
2018-12-19T01:06:45.844Z,69.00
2018-12-19T01:09:15.972Z,81.23
2018-12-19T01:11:45.709Z,79.33
2018-12-19T01:14:15.094Z,85.23
2018-12-19T01:16:44.831Z,83.60
2018-12-19T01:19:15.363Z,78.47
2018-12-19T01:21:44.731Z,75.43
2018-12-19T01:24:14.066Z,92.43
2018-12-19T01:26:43.583Z,87.93
2018-12-19T01:29:13.433Z,91.63
2018-12-19T01:31:53.448Z,73.33
2018-12-19T01:34:22.816Z,68.60
2018-12-19T01:36:52.324Z,71.43
2018-12-19T01:39:22.548Z,64.93
2018-12-19T01:41:52.329Z,60.83
2018-12-19T01:44:21.950Z,75.40
2018-12-19T01:46:51.497Z,68.27
2018-12-19T01:49:20.893Z,71.70
2018-12-19T01:51:50.535Z,68.37
2018-12-19T01:54:20.050Z,64.43
2018-12-19T01:56:49.496Z,61.77
2018-12-19T01:59:18.992Z,51.70
2018-12-19T02:01:48.375Z,71.17
2018-12-19T02:04:17.895Z,52.33
2018-12-19T02:06:47.431Z,55.90
2018-12-19T02:09:16.820Z,59.43
2018-12-19T02:11:46.235Z,53.53
2018-12-19T02:14:15.599Z,50.90
2018-12-19T02:16:45.181Z,48.90
2018-12-19T02:19:14.684Z,51.53
2018-12-19T02:21:44.182Z,46.80
2018-12-19T02:24:13.756Z,46.83
2018-12-19T02:26:43.110Z,55.17
2018-12-19T02:29:12.532Z,49.07
2018-12-19T02:31:41.965Z,55.77
2018-12-19T02:34:11.559Z,47.13
2018-12-19T02:36:41.036Z,50.53
2018-12-19T02:39:10.517Z,49.03
2018-12-19T02:41:40.035Z,44.50
2018-12-19T02:44:09.455Z,46.13
2018-12-19T02:46:38.843Z,47.67
2018-12-19T02:49:08.432Z,45.87
2018-12-19T02:51:37.972Z,41.90
2018-12-19T02:54:07.452Z,53.47
2018-12-19T02:56:36.963Z,52.57
2018-12-19T02:59:06.515Z,47.87
2018-12-19T03:01:35.915Z,48.00
2018-12-19T03:04:05.360Z,47.73
2018-12-19T03:06:35.572Z,49.07
2018-12-19T03:09:07.245Z,49.23
2018-12-19T03:11:36.795Z,52.97
2018-12-19T03:14:06.201Z,45.73
2018-12-19T03:16:35.757Z,42.73
2018-12-19T03:19:05.280Z,43.20
2018-12-19T03:21:34.685Z,40.97
2018-12-19T03:24:04.076Z,43.30
2018-12-19T03:26:33.403Z,51.53
2018-12-19T03:29:02.779Z,47.10
2018-12-19T03:31:32.361Z,41.17
2018-12-19T03:34:01.862Z,40.97
2018-12-19T03:36:31.303Z,41.47
2018-12-19T03:39:00.765Z,47.53
2018-12-19T03:41:30.187Z,40.53
2018-12-19T03:43:59.587Z,41.43
2018-12-19T03:46:29.045Z,51.80
2018-12-19T03:48:58.595Z,45.23
2018-12-19T03:51:28.083Z,50.67
2018-12-19T03:53:57.616Z,47.43
2018-12-19T03:56:27.301Z,50.47
2018-12-19T03:58:56.897Z,46.30
2018-12-19T04:01:26.349Z,49.17
2018-12-19T04:03:56.215Z,51.00
2018-12-19T04:06:25.830Z,41.20
2018-12-19T04:08:55.336Z,44.37
2018-12-19T04:11:25.088Z,43.47
2018-12-19T04:13:54.516Z,47.73
2018-12-19T04:16:23.917Z,43.40
2018-12-19T04:18:53.361Z,47.97
2018-12-19T04:21:22.901Z,50.30
2018-12-19T04:23:52.420Z,50.60
2018-12-19T04:26:21.733Z,45.07
2018-12-19T04:28:51.277Z,50.63
2018-12-19T04:31:20.885Z,55.17
2018-12-19T04:33:50.411Z,46.50
2018-12-19T04:36:19.753Z,43.37
2018-12-19T04:38:49.447Z,44.20
2018-12-19T04:41:18.928Z,48.77
2018-12-19T04:43:48.396Z,53.30
2018-12-19T04:46:17.807Z,48.30
2018-12-19T04:48:47.227Z,48.03
2018-12-19T04:51:16.779Z,47.30
2018-12-19T04:53:46.235Z,47.80
2018-12-19T04:56:15.725Z,50.70
2018-12-19T04:58:45.157Z,50.00
2018-12-19T05:01:14.720Z,52.80
2018-12-19T05:03:44.301Z,53.13
2018-12-19T05:06:13.841Z,49.63
2018-12-19T05:08:43.458Z,48.60
2018-12-19T05:11:15.532Z,52.20
2018-12-19T05:13:44.957Z,51.67
2018-12-19T05:16:14.384Z,52.80
2018-12-19T05:18:44.223Z,46.90
2018-12-19T05:21:13.664Z,52.77
2018-12-19T05:23:43.171Z,53.63
2018-12-19T05:26:12.688Z,53.77
2018-12-19T05:28:42.009Z,52.07
2018-12-19T05:31:11.308Z,51.90
2018-12-19T05:33:40.843Z,54.67
2018-12-19T05:36:10.384Z,54.13
2018-12-19T05:38:39.960Z,46.40
2018-12-19T05:41:09.562Z,50.57
2018-12-19T05:43:38.989Z,53.00
2018-12-19T05:46:08.426Z,51.80
2018-12-19T05:48:37.979Z,53.43
2018-12-19T05:51:07.587Z,52.00
2018-12-19T05:53:37.038Z,53.37
2018-12-19T05:56:06.532Z,58.83
2018-12-19T05:58:35.962Z,57.20
2018-12-19T06:01:05.503Z,53.93
2018-12-19T06:03:35.035Z,53.60
2018-12-19T06:06:04.428Z,49.70
2018-12-19T06:08:34.303Z,50.77
2018-12-19T06:11:03.792Z,52.03
2018-12-19T06:13:33.299Z,54.43
2018-12-19T06:16:02.907Z,50.47
2018-12-19T06:18:32.361Z,50.07
2018-12-19T06:21:06.012Z,51.93
2018-12-19T06:23:35.873Z,50.40
2018-12-19T06:26:07.106Z,50.63
2018-12-19T06:28:36.527Z,48.63
2018-12-19T06:31:05.869Z,52.17
2018-12-19T06:33:36.293Z,57.70
2018-12-19T06:36:05.816Z,56.40
2018-12-19T06:38:35.338Z,51.97
2018-12-19T06:41:04.948Z,48.53
2018-12-19T06:43:34.482Z,52.03
2018-12-19T06:46:04.124Z,50.77
2018-12-19T06:48:33.567Z,48.43
2018-12-19T06:51:03.079Z,51.57
2018-12-19T06:53:32.495Z,45.60
2018-12-19T06:56:02.012Z,50.20
2018-12-19T06:58:31.597Z,56.93
2018-12-19T07:01:01.192Z,53.87
2018-12-19T07:03:31.615Z,49.60
2018-12-19T07:06:01.027Z,54.13
2018-12-19T07:08:30.435Z,44.93
2018-12-19T07:11:00.298Z,48.90
2018-12-19T07:13:29.732Z,49.73
2018-12-19T07:15:59.345Z,45.83
2018-12-19T07:18:28.875Z,48.77
2018-12-19T07:20:58.426Z,45.80
2018-12-19T07:23:27.958Z,47.30
2018-12-19T07:25:57.455Z,49.20
2018-12-19T07:28:26.887Z,49.93
2018-12-19T07:30:57.644Z,49.03
2018-12-19T07:33:27.104Z,52.17
2018-12-19T07:35:56.644Z,48.87
2018-12-19T07:38:26.286Z,46.60
2018-12-19T07:40:55.577Z,47.13
2018-12-19T07:43:24.936Z,48.20
2018-12-19T07:45:54.487Z,47.83
2018-12-19T07:48:24.137Z,47.07
2018-12-19T07:50:53.843Z,49.93
2018-12-19T07:53:23.791Z,50.10
2018-12-19T07:55:53.504Z,48.83
2018-12-19T07:58:23.365Z,49.23
2018-12-19T08:00:53.102Z,45.70
2018-12-19T08:03:22.632Z,48.33
2018-12-19T08:05:52.136Z,46.57
2018-12-19T08:08:21.848Z,46.00
2018-12-19T08:10:52.350Z,44.47
2018-12-19T08:13:21.971Z,51.30
2018-12-19T08:15:51.368Z,54.07
2018-12-19T08:18:20.820Z,44.53
2018-12-19T08:20:50.174Z,48.00
2018-12-19T08:23:19.602Z,47.23
2018-12-19T08:25:49.135Z,48.37
2018-12-19T08:28:18.472Z,42.47
2018-12-19T08:30:48.063Z,46.63
2018-12-19T08:33:17.574Z,47.50
2018-12-19T08:35:47.095Z,51.27
2018-12-19T08:38:16.679Z,48.83
2018-12-19T08:40:46.099Z,51.23
2018-12-19T08:43:15.624Z,52.73
2018-12-19T08:45:45.464Z,47.13
2018-12-19T08:48:14.999Z,45.33
2018-12-19T08:50:44.506Z,45.93
2018-12-19T08:53:14.016Z,50.67
2018-12-19T08:55:43.660Z,46.67
2018-12-19T08:58:13.190Z,53.47
2018-12-19T09:00:42.625Z,43.90
2018-12-19T09:03:12.582Z,48.30
2018-12-19T09:05:42.076Z,47.77
2018-12-19T09:08:11.463Z,47.77
2018-12-19T09:10:42.147Z,44.57
2018-12-19T09:13:11.694Z,48.63
2018-12-19T09:15:46.846Z,50.53
2018-12-19T09:18:16.422Z,51.93
2018-12-19T09:20:47.545Z,51.87
2018-12-19T09:23:17.411Z,47.50
2018-12-19T09:25:46.819Z,53.47
2018-12-19T09:28:16.264Z,51.17
2018-12-19T09:30:45.543Z,46.87
2018-12-19T09:33:15.100Z,46.20
2018-12-19T09:35:44.600Z,52.63
2018-12-19T09:38:15.020Z,44.20
2018-12-19T09:40:44.547Z,50.10
2018-12-19T09:43:13.963Z,51.10
2018-12-19T09:45:43.356Z,48.03
2018-12-19T09:48:13.122Z,49.37
2018-12-19T09:50:42.513Z,51.33
2018-12-19T09:53:12.560Z,45.67
2018-12-19T09:55:42.109Z,50.57
2018-12-19T09:58:11.552Z,52.83
2018-12-19T10:00:41.081Z,48.57
2018-12-19T10:03:13.414Z,51.37
2018-12-19T10:05:43.169Z,48.77
2018-12-19T10:08:12.596Z,45.87
2018-12-19T10:10:42.016Z,51.47
2018-12-19T10:13:11.467Z,50.80
2018-12-19T10:15:40.973Z,50.67
2018-12-19T10:18:10.413Z,47.17
2018-12-19T10:20:39.816Z,51.20
2018-12-19T10:23:09.196Z,51.70
2018-12-19T10:25:38.533Z,57.93
2018-12-19T10:28:07.915Z,56.83
2018-12-19T10:30:51.789Z,51.60
2018-12-19T10:33:21.245Z,55.43
2018-12-19T10:35:50.693Z,50.23
2018-12-19T10:38:20.235Z,51.07
2018-12-19T10:40:49.839Z,51.60
2018-12-19T10:43:19.279Z,52.47
2018-12-19T10:45:48.769Z,52.47
2018-12-19T10:48:18.193Z,52.70
2018-12-19T10:50:47.496Z,50.70
2018-12-19T10:53:17.054Z,51.20
2018-12-19T10:55:46.551Z,51.33
2018-12-19T10:58:16.082Z,53.53
2018-12-19T11:00:50.556Z,57.30
2018-12-19T11:03:19.987Z,52.90
2018-12-19T11:05:54.309Z,53.23
2018-12-19T11:08:20.983Z,57.20
2018-12-19T11:10:50.384Z,52.50
2018-12-19T11:13:19.965Z,54.50
2018-12-19T11:15:49.460Z,54.83
2018-12-19T11:18:18.889Z,50.10
2018-12-19T11:20:48.280Z,52.47
2018-12-19T11:23:18.912Z,57.10
2018-12-19T11:25:49.076Z,57.03
2018-12-19T11:28:18.536Z,56.90
2018-12-19T11:30:47.942Z,47.60
2018-12-19T11:33:17.337Z,46.80
2018-12-19T11:35:46.684Z,52.87
2018-12-19T11:38:16.224Z,48.17
2018-12-19T11:40:45.727Z,50.80
2018-12-19T11:43:15.505Z,48.67
2018-12-19T11:45:44.809Z,49.77
2018-12-19T11:48:14.340Z,53.80
2018-12-19T11:50:43.868Z,48.87
2018-12-19T11:53:13.371Z,49.87
2018-12-19T11:55:42.866Z,49.33
2018-12-19T11:58:12.360Z,53.17
2018-12-19T12:00:41.870Z,54.43
2018-12-19T12:03:12.127Z,48.07
2018-12-19T12:05:41.594Z,51.87
2018-12-19T12:08:11.195Z,50.63
2018-12-19T12:10:40.617Z,49.90
2018-12-19T12:13:10.040Z,48.03
2018-12-19T12:15:39.516Z,47.40
2018-12-19T12:18:09.017Z,45.43
2018-12-19T12:20:38.428Z,44.17
2018-12-19T12:23:08.211Z,51.07
2018-12-19T12:25:37.747Z,51.63
2018-12-19T12:28:07.256Z,48.90
2018-12-19T12:30:36.676Z,55.23
2018-12-19T12:33:06.244Z,50.77
2018-12-19T12:35:35.747Z,51.73
2018-12-19T12:38:05.289Z,56.00
2018-12-19T12:40:34.792Z,53.63
2018-12-19T12:43:04.232Z,55.10
2018-12-19T12:45:34.655Z,51.47
2018-12-19T12:48:04.043Z,55.63
2018-12-19T12:50:33.606Z,58.23
2018-12-19T12:53:03.019Z,51.53
2018-12-19T12:55:32.520Z,53.23
2018-12-19T12:58:01.972Z,56.63
2018-12-19T13:00:32.381Z,51.80
2018-12-19T13:03:01.805Z,60.57
2018-12-19T13:05:31.100Z,56.83
2018-12-19T13:08:00.639Z,58.70
2018-12-19T13:10:36.108Z,60.37
2018-12-19T13:13:01.767Z,56.53
2018-12-19T13:15:37.086Z,57.27
2018-12-19T13:18:07.295Z,53.77
2018-12-19T13:20:36.728Z,52.90
2018-12-19T13:23:06.131Z,53.33
2018-12-19T13:25:35.571Z,60.90
2018-12-19T13:28:05.072Z,56.20
2018-12-19T13:30:34.497Z,57.80
2018-12-19T13:33:03.904Z,53.00
2018-12-19T13:35:34.881Z,54.53
2018-12-19T13:38:04.434Z,53.13
2018-12-19T13:40:33.950Z,54.10
2018-12-19T13:43:03.451Z,53.73
2018-12-19T13:45:33.099Z,52.67
2018-12-19T13:48:02.543Z,51.57
2018-12-19T13:50:32.475Z,86.23
2018-12-19T13:53:06.739Z,68.03
2018-12-19T13:55:36.572Z,60.73
2018-12-19T13:58:07.163Z,53.50
2018-12-19T14:00:37.520Z,56.50
2018-12-19T14:03:07.047Z,73.43
2018-12-19T14:05:38.430Z,63.20
2018-12-19T14:08:07.962Z,54.03
2018-12-19T14:10:37.810Z,67.83
2018-12-19T14:13:07.371Z,50.70
2018-12-19T14:15:36.747Z,53.30
2018-12-19T14:18:06.242Z,51.73
2018-12-19T14:20:36.491Z,52.63
2018-12-19T14:23:05.880Z,51.70
2018-12-19T14:25:35.327Z,52.57
2018-12-19T14:28:04.921Z,55.40
2018-12-19T14:30:34.467Z,49.33
2018-12-19T14:33:03.980Z,58.27
2018-12-19T14:35:33.763Z,48.13
2018-12-19T14:38:03.488Z,54.60
2018-12-19T14:40:32.919Z,61.50
2018-12-19T14:43:02.313Z,59.87
2018-12-19T14:45:31.764Z,53.40
2018-12-19T14:48:01.299Z,56.03
2018-12-19T14:50:30.907Z,55.67
2018-12-19T14:53:00.344Z,57.27
2018-12-19T14:55:29.835Z,62.40
2018-12-19T14:57:59.520Z,56.53
2018-12-19T18:49:02.525Z,49.97
2018-12-19T18:51:40.243Z,64.40
2018-12-19T18:54:09.878Z,60.00
2018-12-19T18:56:39.362Z,63.50
2018-12-19T18:59:09.242Z,67.27
2018-12-19T19:01:38.804Z,74.70
2018-12-19T19:04:08.699Z,56.70
2018-12-19T19:06:38.457Z,61.13
2018-12-19T19:09:07.920Z,64.83
2018-12-19T19:11:37.268Z,70.37
2018-12-19T19:14:06.619Z,67.17
2018-12-19T19:16:36.523Z,66.77
2018-12-19T19:19:06.044Z,69.03
2018-12-19T19:21:35.510Z,73.10
2018-12-19T19:24:04.952Z,74.80
2018-12-19T19:26:34.703Z,81.27
2018-12-19T19:29:04.298Z,70.03
2018-12-19T19:31:33.687Z,75.13
2018-12-19T19:34:03.098Z,80.77
2018-12-19T19:36:32.603Z,81.90
2018-12-19T19:39:02.069Z,76.53
2018-12-19T19:41:31.586Z,77.93
2018-12-19T19:44:02.139Z,81.13
2018-12-19T19:46:31.551Z,66.47
2018-12-19T19:49:01.100Z,86.23
2018-12-19T19:51:30.531Z,81.93
2018-12-19T19:54:00.121Z,68.90
2018-12-19T19:56:29.620Z,74.53
2018-12-19T19:58:59.065Z,62.90
2018-12-19T20:01:29.343Z,66.57
2018-12-19T20:03:58.849Z,64.47
2018-12-19T20:06:28.367Z,69.90
2018-12-19T20:08:57.802Z,70.57
2018-12-19T20:11:28.232Z,80.43
2018-12-19T20:13:57.609Z,75.50
2018-12-19T20:16:27.103Z,62.20
2018-12-19T20:18:56.533Z,69.70
2018-12-19T20:21:26.012Z,74.37
2018-12-19T20:23:55.499Z,69.67
2018-12-19T20:26:25.011Z,62.70
2018-12-19T20:28:54.434Z,57.00
2018-12-19T20:31:23.949Z,65.00
2018-12-19T20:33:53.375Z,57.50
2018-12-19T20:36:22.738Z,49.60
2018-12-19T20:38:52.190Z,56.03
2018-12-19T20:41:21.620Z,55.93
2018-12-19T20:43:51.124Z,57.20
2018-12-19T20:46:20.756Z,43.77
2018-12-19T20:48:50.263Z,63.80
2018-12-19T20:51:19.710Z,55.97
2018-12-19T20:53:49.138Z,56.20
2018-12-19T20:56:18.831Z,65.53
2018-12-19T20:58:48.263Z,52.83
2018-12-19T21:01:17.795Z,51.77
2018-12-19T21:03:47.232Z,53.53
2018-12-19T21:06:16.667Z,59.77
2018-12-19T21:08:46.190Z,54.73
2018-12-19T21:11:16.038Z,62.27
2018-12-19T21:13:46.860Z,65.20
2018-12-19T21:16:16.544Z,70.03
2018-12-19T21:18:51.939Z,57.53
2018-12-19T21:21:21.314Z,55.43
2018-12-19T21:23:50.687Z,54.30
2018-12-19T21:26:20.096Z,55.37
2018-12-19T21:28:49.453Z,57.27
2018-12-19T21:31:18.759Z,58.00
2018-12-19T21:33:48.397Z,59.07
2018-12-19T21:36:17.905Z,54.10
2018-12-19T21:38:47.315Z,60.37
2018-12-19T21:41:16.709Z,58.07
2018-12-19T21:43:46.290Z,57.97
2018-12-19T21:46:15.757Z,60.50
2018-12-19T21:48:45.392Z,60.87
2018-12-19T21:51:14.953Z,60.20
2018-12-19T21:53:44.387Z,57.10
2018-12-19T21:56:14.661Z,56.90
2018-12-19T21:58:44.215Z,57.70
2018-12-19T22:01:13.629Z,50.00
2018-12-19T22:03:43.122Z,52.47
2018-12-19T22:06:12.591Z,47.50
2018-12-19T22:08:42.033Z,45.90
2018-12-19T22:11:11.813Z,66.07
2018-12-19T22:13:41.322Z,54.27
2018-12-19T22:16:15.150Z,52.70
2018-12-19T22:18:47.346Z,52.43
2018-12-19T22:21:17.422Z,57.73
2018-12-19T22:23:47.114Z,53.50
2018-12-19T22:26:16.504Z,64.50
2018-12-19T22:28:45.922Z,54.63
2018-12-19T22:31:15.309Z,48.10
2018-12-19T22:33:44.825Z,62.43
2018-12-19T22:36:14.521Z,61.00
2018-12-19T22:38:44.273Z,59.27
2018-12-19T22:41:13.599Z,68.13
2018-12-19T22:43:43.010Z,69.93
2018-12-19T22:46:12.686Z,66.37
2018-12-19T22:48:42.114Z,68.40
2018-12-19T22:51:11.669Z,71.43
2018-12-19T22:53:41.127Z,67.10
2018-12-19T22:56:10.719Z,54.03
2018-12-19T22:58:40.325Z,47.67
2018-12-19T23:01:15.047Z,36.37
2018-12-19T23:03:49.503Z,32.90
2018-12-19T23:06:19.363Z,30.37
2018-12-19T23:08:48.915Z,31.33
2018-12-19T23:11:18.448Z,33.30
2018-12-19T23:13:47.969Z,34.37
2018-12-19T23:16:17.397Z,35.17
2018-12-19T23:18:46.812Z,33.23
2018-12-19T23:21:16.526Z,31.90
2018-12-19T23:23:46.145Z,35.47
2018-12-19T23:26:15.704Z,31.53
2018-12-19T23:28:45.103Z,34.07
2018-12-19T23:31:14.667Z,31.77
2018-12-19T23:33:44.225Z,37.03
2018-12-19T23:36:13.676Z,32.77
2018-12-19T23:38:43.053Z,34.00
2018-12-19T23:41:12.559Z,28.93
2018-12-19T23:43:41.944Z,29.13
2018-12-19T23:46:11.459Z,26.77
2018-12-19T23:48:41.009Z,30.93
2018-12-19T23:51:10.757Z,27.07
2018-12-19T23:53:40.349Z,27.07
2018-12-19T23:56:09.778Z,25.93
2018-12-19T23:58:39.346Z,32.10
